createdAt,value
2022-08-21T00:00:31.022Z,0
2022-08-21T00:01:31.638Z,0
2022-08-21T00:02:33.042Z,0
2022-08-21T00:03:33.297Z,0
2022-08-21T00:04:38.425Z,0
2022-08-21T00:05:39.131Z,0
2022-08-21T00:06:40.030Z,0
2022-08-21T00:07:40.946Z,0
2022-08-21T00:08:42.141Z,0
2022-08-21T00:09:42.671Z,0
2022-08-21T00:10:42.891Z,0
2022-08-21T00:11:43.089Z,0
2022-08-21T00:12:43.730Z,0
2022-08-21T00:13:44.963Z,0
2022-08-21T00:14:45.586Z,0
2022-08-21T00:15:47.515Z,0
2022-08-21T00:16:47.434Z,0
2022-08-21T00:17:47.413Z,0
2022-08-21T00:18:48.906Z,0
2022-08-21T00:19:48.546Z,0
2022-08-21T00:20:49.747Z,0
2022-08-21T00:21:50.274Z,0
2022-08-21T00:22:51.203Z,0
2022-08-21T00:23:52.143Z,0
2022-08-21T00:24:52.767Z,0
2022-08-21T00:25:53.509Z,0
2022-08-21T00:26:54.012Z,0
2022-08-21T00:27:53.918Z,0
2022-08-21T00:28:54.820Z,0
2022-08-21T00:29:55.485Z,0
2022-08-21T00:30:55.978Z,0
2022-08-21T00:31:55.623Z,0
2022-08-21T00:32:56.658Z,0
2022-08-21T00:34:00.561Z,0
2022-08-21T00:34:58.000Z,0
2022-08-21T00:35:59.007Z,0
2022-08-21T00:36:59.923Z,0
2022-08-21T00:38:00.563Z,0
2022-08-21T00:39:01.161Z,0
2022-08-21T00:40:01.748Z,0
2022-08-21T00:41:13.442Z,0
2022-08-21T00:42:03.762Z,0
2022-08-21T00:43:05.206Z,0
2022-08-21T00:44:05.707Z,0
2022-08-21T00:45:05.619Z,0
2022-08-21T00:46:05.644Z,0
2022-08-21T00:47:06.537Z,0
2022-08-21T00:48:06.755Z,0
2022-08-21T00:49:10.126Z,0
2022-08-21T00:50:07.790Z,0
2022-08-21T00:51:08.752Z,0
2022-08-21T00:52:09.668Z,0
2022-08-21T00:53:09.954Z,0
2022-08-21T00:54:18.577Z,0
2022-08-21T00:55:15.416Z,0
2022-08-21T00:56:15.486Z,0
2022-08-21T00:57:13.334Z,0
2022-08-21T00:58:16.533Z,0
2022-08-21T00:59:13.537Z,0
2022-08-21T01:00:13.889Z,0
2022-08-21T01:01:19.859Z,0
2022-08-21T01:02:15.306Z,0
2022-08-21T01:03:19.635Z,0
2022-08-21T01:04:17.559Z,0
2022-08-21T01:05:17.467Z,0
2022-08-21T01:06:18.166Z,0
2022-08-21T01:07:19.379Z,0
2022-08-21T01:08:18.952Z,0
2022-08-21T01:09:19.591Z,0
2022-08-21T01:10:30.004Z,0
2022-08-21T01:11:20.488Z,0
2022-08-21T01:12:21.251Z,0
2022-08-21T01:13:22.151Z,0
2022-08-21T01:14:22.490Z,0
2022-08-21T01:15:23.391Z,0
2022-08-21T01:16:24.672Z,0
2022-08-21T01:17:25.866Z,0
2022-08-21T01:18:25.477Z,0
2022-08-21T01:19:26.970Z,0
2022-08-21T01:20:37.973Z,0
2022-08-21T01:21:33.959Z,0
2022-08-21T01:22:27.869Z,0
2022-08-21T01:23:28.079Z,0
2022-08-21T01:24:29.301Z,0
2022-08-21T01:25:29.625Z,0
2022-08-21T01:26:40.118Z,0
2022-08-21T01:27:31.318Z,0
2022-08-21T01:28:31.216Z,0
2022-08-21T01:29:32.408Z,0
2022-08-21T01:30:33.049Z,0
2022-08-21T01:31:36.996Z,0
2022-08-21T01:32:34.192Z,0
2022-08-21T01:33:35.090Z,0
2022-08-21T01:34:35.731Z,0
2022-08-21T01:35:36.349Z,0
2022-08-21T01:36:37.069Z,0
2022-08-21T01:37:36.682Z,0
2022-08-21T01:38:38.711Z,0
2022-08-21T01:39:38.381Z,0
2022-08-21T01:40:40.035Z,0
2022-08-21T01:41:39.955Z,0
2022-08-21T01:42:40.164Z,0
2022-08-21T01:43:50.783Z,0
2022-08-21T01:44:41.703Z,0
2022-08-21T01:45:42.627Z,0
2022-08-21T01:46:43.617Z,0
2022-08-21T01:47:44.813Z,0
2022-08-21T01:48:45.029Z,0
2022-08-21T01:49:45.217Z,0
2022-08-21T01:50:45.414Z,0
2022-08-21T01:51:46.647Z,0
2022-08-21T01:52:46.843Z,0
2022-08-21T01:53:47.033Z,0
2022-08-21T01:54:51.078Z,0
2022-08-21T01:55:47.124Z,0
2022-08-21T01:56:48.135Z,0
2022-08-21T01:57:48.048Z,0
2022-08-21T01:58:48.267Z,0
2022-08-21T01:59:48.464Z,0
2022-08-21T02:00:48.881Z,0
2022-08-21T02:01:49.258Z,0
2022-08-21T02:02:49.743Z,0
2022-08-21T02:03:50.503Z,0
2022-08-21T02:04:50.572Z,0
2022-08-21T02:05:51.478Z,0
2022-08-21T02:06:52.787Z,0
2022-08-21T02:07:52.425Z,0
2022-08-21T02:08:53.766Z,0
2022-08-21T02:09:54.866Z,0
2022-08-21T02:10:59.708Z,0
2022-08-21T02:11:55.329Z,0
2022-08-21T02:12:56.338Z,0
2022-08-21T02:13:57.273Z,0
2022-08-21T02:14:58.215Z,0
2022-08-21T02:15:58.131Z,0
2022-08-21T02:17:15.092Z,0
2022-08-21T02:17:59.730Z,0
2022-08-21T02:19:00.939Z,0
2022-08-21T02:20:00.827Z,0
2022-08-21T02:21:06.989Z,0
2022-08-21T02:22:02.905Z,0
2022-08-21T02:23:03.979Z,0
2022-08-21T02:24:04.195Z,0
2022-08-21T02:25:05.785Z,0
2022-08-21T02:26:05.003Z,0
2022-08-21T02:27:05.657Z,0
2022-08-21T02:28:06.342Z,0
2022-08-21T02:29:06.250Z,0
2022-08-21T02:30:07.444Z,0
2022-08-21T02:31:07.082Z,0
2022-08-21T02:32:08.992Z,0
2022-08-21T02:33:09.458Z,0
2022-08-21T02:34:09.374Z,0
2022-08-21T02:35:10.270Z,0
2022-08-21T02:36:10.481Z,0
2022-08-21T02:37:11.899Z,0
2022-08-21T02:38:12.959Z,0
2022-08-21T02:39:12.579Z,0
2022-08-21T02:40:13.218Z,0
2022-08-21T02:41:14.226Z,0
2022-08-21T02:42:14.440Z,0
2022-08-21T02:43:17.074Z,0
2022-08-21T02:44:15.004Z,0
2022-08-21T02:45:16.220Z,0
2022-08-21T02:46:17.134Z,0
2022-08-21T02:47:17.329Z,0
2022-08-21T02:48:17.922Z,0
2022-08-21T02:49:19.543Z,0
2022-08-21T02:50:19.161Z,0
2022-08-21T02:51:19.397Z,0
2022-08-21T02:52:20.591Z,0
2022-08-21T02:53:21.809Z,0
2022-08-21T02:54:21.704Z,0
2022-08-21T02:55:22.594Z,0
2022-08-21T02:56:22.932Z,0
2022-08-21T02:57:24.216Z,0
2022-08-21T02:58:24.709Z,0
2022-08-21T02:59:24.641Z,0
2022-08-21T03:00:25.845Z,0
2022-08-21T03:01:25.811Z,0
2022-08-21T03:02:26.770Z,0
2022-08-21T03:03:27.268Z,0
2022-08-21T03:04:27.166Z,0
2022-08-21T03:05:27.778Z,0
2022-08-21T03:06:28.420Z,0
2022-08-21T03:07:28.728Z,0
2022-08-21T03:08:33.458Z,0
2022-08-21T03:09:30.354Z,0
2022-08-21T03:10:31.267Z,0
2022-08-21T03:11:31.458Z,0
2022-08-21T03:12:35.915Z,0
2022-08-21T03:13:32.412Z,0
2022-08-21T03:14:32.333Z,0
2022-08-21T03:15:33.763Z,0
2022-08-21T03:16:40.385Z,0
2022-08-21T03:17:41.341Z,0
2022-08-21T03:18:33.968Z,0
2022-08-21T03:19:34.608Z,0
2022-08-21T03:20:35.807Z,0
2022-08-21T03:21:35.716Z,0
2022-08-21T03:22:37.948Z,0
2022-08-21T03:23:43.995Z,0
2022-08-21T03:24:38.065Z,0
2022-08-21T03:25:51.782Z,0
2022-08-21T03:26:40.598Z,0
2022-08-21T03:27:43.673Z,0
2022-08-21T03:28:39.812Z,0
2022-08-21T03:29:40.448Z,0
2022-08-21T03:30:41.064Z,0
2022-08-21T03:31:42.003Z,0
2022-08-21T03:32:42.881Z,0
2022-08-21T03:33:45.791Z,0
2022-08-21T03:34:44.001Z,0
2022-08-21T03:35:44.050Z,0
2022-08-21T03:36:44.965Z,0
2022-08-21T03:37:45.684Z,0
2022-08-21T03:38:46.176Z,0
2022-08-21T03:39:46.501Z,0
2022-08-21T03:40:46.205Z,0
2022-08-21T03:41:46.851Z,0
2022-08-21T03:42:48.343Z,0
2022-08-21T03:43:48.546Z,0
2022-08-21T03:44:48.762Z,0
2022-08-21T03:45:49.684Z,0
2022-08-21T03:46:49.987Z,0
2022-08-21T03:47:50.265Z,0
2022-08-21T03:48:50.479Z,0
2022-08-21T03:49:50.675Z,0
2022-08-21T03:50:52.333Z,0
2022-08-21T03:51:55.577Z,0
2022-08-21T03:52:52.342Z,0
2022-08-21T03:53:52.410Z,0
2022-08-21T03:54:53.330Z,0
2022-08-21T03:55:53.764Z,0
2022-08-21T03:56:55.014Z,0
2022-08-21T03:57:54.592Z,0
2022-08-21T03:58:54.400Z,0
2022-08-21T03:59:55.021Z,0
2022-08-21T04:00:55.954Z,0
2022-08-21T04:02:02.384Z,4
2022-08-21T04:02:57.282Z,4
2022-08-21T04:03:57.218Z,0
2022-08-21T04:04:58.436Z,0
2022-08-21T04:05:58.935Z,4
2022-08-21T04:06:59.430Z,4
2022-08-21T04:08:00.145Z,4
2022-08-21T04:09:01.466Z,4
2022-08-21T04:10:01.962Z,8
2022-08-21T04:11:02.454Z,4
2022-08-21T04:12:02.368Z,8
2022-08-21T04:13:03.855Z,8
2022-08-21T04:14:02.902Z,8
2022-08-21T04:15:04.679Z,8
2022-08-21T04:16:05.888Z,12
2022-08-21T04:17:06.375Z,8
2022-08-21T04:18:06.830Z,12
2022-08-21T04:19:07.598Z,12
2022-08-21T04:20:08.513Z,12
2022-08-21T04:21:10.792Z,16
2022-08-21T04:22:09.638Z,20
2022-08-21T04:23:10.478Z,16
2022-08-21T04:24:10.805Z,20
2022-08-21T04:25:11.998Z,20
2022-08-21T04:26:12.333Z,24
2022-08-21T04:27:13.830Z,24
2022-08-21T04:28:13.535Z,28
2022-08-21T04:29:16.107Z,28
2022-08-21T04:30:15.601Z,28
2022-08-21T04:31:16.081Z,32
2022-08-21T04:32:15.999Z,32
2022-08-21T04:33:15.902Z,32
2022-08-21T04:34:16.834Z,36
2022-08-21T04:35:16.748Z,36
2022-08-21T04:36:17.690Z,40
2022-08-21T04:37:17.510Z,40
2022-08-21T04:38:17.945Z,40
2022-08-21T04:39:21.519Z,44
2022-08-21T04:40:19.075Z,48
2022-08-21T04:41:20.424Z,48
2022-08-21T04:42:20.293Z,52
2022-08-21T04:43:20.509Z,52
2022-08-21T04:44:21.413Z,56
2022-08-21T04:45:21.624Z,56
2022-08-21T04:46:24.726Z,60
2022-08-21T04:47:22.318Z,68
2022-08-21T04:48:34.490Z,68
2022-08-21T04:49:35.685Z,72
2022-08-21T04:50:35.306Z,72
2022-08-21T04:51:38.074Z,76
2022-08-21T04:52:37.269Z,76
2022-08-21T04:53:37.488Z,76
2022-08-21T04:54:37.501Z,80
2022-08-21T04:55:38.403Z,84
2022-08-21T04:56:38.601Z,84
2022-08-21T04:57:59.624Z,92
2022-08-21T04:58:47.647Z,92
2022-08-21T04:59:48.288Z,92
2022-08-21T05:00:49.178Z,100
2022-08-21T05:01:49.416Z,100
2022-08-21T05:02:49.491Z,104
2022-08-21T05:03:51.887Z,108
2022-08-21T05:04:51.505Z,108
2022-08-21T05:05:52.518Z,116
2022-08-21T05:06:53.142Z,116
2022-08-21T05:07:53.743Z,120
2022-08-21T05:08:55.812Z,124
2022-08-21T05:09:53.921Z,128
2022-08-21T05:10:58.305Z,136
2022-08-21T05:11:55.042Z,136
2022-08-21T05:12:55.582Z,140
2022-08-21T05:14:03.449Z,156
2022-08-21T05:14:56.065Z,168
2022-08-21T05:15:57.257Z,188
2022-08-21T05:16:57.758Z,192
2022-08-21T05:18:12.068Z,208
2022-08-21T05:19:00.086Z,216
2022-08-21T05:20:00.005Z,220
2022-08-21T05:21:00.603Z,224
2022-08-21T05:22:01.502Z,232
2022-08-21T05:23:03.248Z,240
2022-08-21T05:24:03.337Z,240
2022-08-21T05:25:03.531Z,240
2022-08-21T05:26:05.162Z,248
2022-08-21T05:27:09.204Z,268
2022-08-21T05:28:06.235Z,272
2022-08-21T05:29:12.254Z,284
2022-08-21T05:30:07.226Z,304
2022-08-21T05:31:07.722Z,324
2022-08-21T05:32:07.646Z,340
2022-08-21T05:33:08.472Z,344
2022-08-21T05:34:09.403Z,356
2022-08-21T05:35:09.816Z,388
2022-08-21T05:36:10.009Z,400
2022-08-21T05:37:13.283Z,412
2022-08-21T05:38:16.770Z,412
2022-08-21T05:39:12.204Z,412
2022-08-21T05:40:33.533Z,332
2022-08-21T05:41:13.155Z,304
2022-08-21T05:42:13.395Z,304
2022-08-21T05:43:14.021Z,316
2022-08-21T05:44:21.348Z,328
2022-08-21T05:45:15.347Z,324
2022-08-21T05:46:16.030Z,328
2022-08-21T05:47:16.648Z,336
2022-08-21T05:48:16.990Z,340
2022-08-21T05:49:18.377Z,332
2022-08-21T05:50:18.595Z,308
2022-08-21T05:51:18.855Z,320
2022-08-21T05:52:19.073Z,332
2022-08-21T05:53:19.394Z,312
2022-08-21T05:54:20.324Z,288
2022-08-21T05:55:20.951Z,268
2022-08-21T05:56:22.444Z,304
2022-08-21T05:57:22.389Z,252
2022-08-21T05:58:22.325Z,248
2022-08-21T05:59:23.052Z,244
2022-08-21T06:00:24.195Z,240
2022-08-21T06:01:24.393Z,236
2022-08-21T06:02:24.546Z,232
2022-08-21T06:03:24.766Z,240
2022-08-21T06:04:25.964Z,248
2022-08-21T06:05:43.242Z,252
2022-08-21T06:06:25.870Z,252
2022-08-21T06:07:26.499Z,244
2022-08-21T06:08:27.414Z,232
2022-08-21T06:09:28.417Z,232
2022-08-21T06:10:28.395Z,240
2022-08-21T06:11:34.755Z,264
2022-08-21T06:12:30.246Z,264
2022-08-21T06:13:30.109Z,272
2022-08-21T06:14:31.111Z,276
2022-08-21T06:15:32.029Z,288
2022-08-21T06:16:32.953Z,336
2022-08-21T06:17:33.442Z,280
2022-08-21T06:18:33.341Z,268
2022-08-21T06:19:33.764Z,264
2022-08-21T06:20:33.746Z,268
2022-08-21T06:21:34.972Z,260
2022-08-21T06:22:35.016Z,276
2022-08-21T06:23:44.736Z,320
2022-08-21T06:24:36.934Z,320
2022-08-21T06:25:37.988Z,316
2022-08-21T06:26:38.596Z,336
2022-08-21T06:27:39.521Z,540
2022-08-21T06:28:41.020Z,312
2022-08-21T06:29:55.783Z,312
2022-08-21T06:30:41.718Z,316
2022-08-21T06:31:43.933Z,344
2022-08-21T06:32:41.730Z,404
2022-08-21T06:33:44.038Z,528
2022-08-21T06:34:43.247Z,452
2022-08-21T06:35:47.252Z,448
2022-08-21T06:36:44.468Z,516
2022-08-21T06:37:45.396Z,552
2022-08-21T06:38:54.593Z,420
2022-08-21T06:40:04.805Z,408
2022-08-21T06:41:04.174Z,444
2022-08-21T06:42:02.585Z,512
2022-08-21T06:43:04.042Z,532
2022-08-21T06:44:04.114Z,532
2022-08-21T06:45:04.606Z,576
2022-08-21T06:46:04.525Z,640
2022-08-21T06:47:05.147Z,748
2022-08-21T06:48:05.071Z,752
2022-08-21T06:49:06.715Z,800
2022-08-21T06:50:07.364Z,868
2022-08-21T06:51:07.261Z,768
2022-08-21T06:52:07.493Z,680
2022-08-21T06:53:07.409Z,604
2022-08-21T06:54:10.058Z,556
2022-08-21T06:55:08.708Z,588
2022-08-21T06:56:09.737Z,592
2022-08-21T06:57:10.387Z,580
2022-08-21T06:58:10.588Z,692
2022-08-21T06:59:11.508Z,1056
2022-08-21T07:00:12.492Z,1276
2022-08-21T07:01:14.077Z,832
2022-08-21T07:02:14.663Z,668
2022-08-21T07:03:14.862Z,580
2022-08-21T07:04:15.357Z,600
2022-08-21T07:05:29.654Z,988
2022-08-21T07:06:16.855Z,1188
2022-08-21T07:07:17.353Z,3328
2022-08-21T07:08:17.270Z,2604
2022-08-21T07:09:21.529Z,1632
2022-08-21T07:10:28.676Z,1164
2022-08-21T07:11:19.301Z,1112
2022-08-21T07:12:19.639Z,904
2022-08-21T07:13:20.839Z,788
2022-08-21T07:14:31.488Z,588
2022-08-21T07:15:22.110Z,616
2022-08-21T07:16:22.707Z,836
2022-08-21T07:17:23.627Z,704
2022-08-21T07:18:23.832Z,3464
2022-08-21T07:19:24.755Z,2300
2022-08-21T07:20:25.766Z,1956
2022-08-21T07:21:31.812Z,2200
2022-08-21T07:22:26.735Z,2136
2022-08-21T07:23:26.957Z,2500
2022-08-21T07:24:26.880Z,1892
2022-08-21T07:25:26.785Z,1220
2022-08-21T07:26:27.986Z,1080
2022-08-21T07:27:28.612Z,1908
2022-08-21T07:28:29.259Z,2020
2022-08-21T07:29:29.203Z,876
2022-08-21T07:30:30.493Z,1468
2022-08-21T07:31:30.434Z,1744
2022-08-21T07:32:32.649Z,1616
2022-08-21T07:33:31.859Z,1572
2022-08-21T07:34:32.063Z,1504
2022-08-21T07:35:32.977Z,1464
2022-08-21T07:36:33.486Z,1440
2022-08-21T07:37:34.089Z,1436
2022-08-21T07:38:34.319Z,1448
2022-08-21T07:39:34.669Z,1464
2022-08-21T07:40:35.538Z,1556
2022-08-21T07:41:36.440Z,1728
2022-08-21T07:42:38.426Z,1816
2022-08-21T07:43:37.999Z,1884
2022-08-21T07:44:38.650Z,1780
2022-08-21T07:45:38.574Z,1572
2022-08-21T07:46:39.199Z,1388
2022-08-21T07:47:57.229Z,1276
2022-08-21T07:48:40.544Z,1244
2022-08-21T07:49:40.193Z,1200
2022-08-21T07:50:40.676Z,1176
2022-08-21T07:51:41.307Z,1196
2022-08-21T07:52:42.843Z,1424
2022-08-21T07:53:42.494Z,1340
2022-08-21T07:54:45.786Z,1228
2022-08-21T07:55:44.002Z,1196
2022-08-21T07:56:45.228Z,1176
2022-08-21T07:57:44.839Z,1152
2022-08-21T07:58:46.061Z,1128
2022-08-21T07:59:46.267Z,1104
2022-08-21T08:00:46.773Z,1100
2022-08-21T08:01:47.403Z,1144
2022-08-21T08:02:48.900Z,1284
2022-08-21T08:03:49.399Z,1444
2022-08-21T08:05:01.495Z,1440
2022-08-21T08:05:49.719Z,1404
2022-08-21T08:06:50.224Z,1456
2022-08-21T08:07:50.716Z,1444
2022-08-21T08:08:50.938Z,1372
2022-08-21T08:09:51.862Z,1224
2022-08-21T08:10:53.418Z,1160
2022-08-21T08:11:52.914Z,1136
2022-08-21T08:12:53.848Z,1160
2022-08-21T08:13:54.706Z,1224
2022-08-21T08:14:55.060Z,1264
2022-08-21T08:15:56.658Z,1372
2022-08-21T08:16:57.689Z,1444
2022-08-21T08:17:57.893Z,1572
2022-08-21T08:18:58.513Z,976
2022-08-21T08:19:59.415Z,920
2022-08-21T08:21:00.755Z,1488
2022-08-21T08:22:00.972Z,1616
2022-08-21T08:23:01.040Z,1124
2022-08-21T08:24:02.743Z,1616
2022-08-21T08:25:05.172Z,3096
2022-08-21T08:26:04.017Z,1816
2022-08-21T08:27:05.539Z,3384
2022-08-21T08:28:03.925Z,2992
2022-08-21T08:29:04.665Z,2612
2022-08-21T08:30:04.892Z,2208
2022-08-21T08:31:05.289Z,1688
2022-08-21T08:32:05.637Z,1532
2022-08-21T08:33:07.051Z,2468
2022-08-21T08:34:06.705Z,5528
2022-08-21T08:35:10.160Z,8888
2022-08-21T08:36:13.799Z,6340
2022-08-21T08:37:13.029Z,2824
2022-08-21T08:38:15.072Z,1516
2022-08-21T08:39:26.282Z,1456
2022-08-21T08:40:13.039Z,1488
2022-08-21T08:41:11.729Z,1328
2022-08-21T08:42:40.101Z,1572
2022-08-21T08:43:14.448Z,1584
2022-08-21T08:44:13.376Z,1512
2022-08-21T08:45:14.005Z,1544
2022-08-21T08:46:15.507Z,1464
2022-08-21T08:47:16.009Z,1980
2022-08-21T08:48:20.111Z,4400
2022-08-21T08:49:15.736Z,5876
2022-08-21T08:51:16.572Z,12384
2022-08-21T08:52:17.505Z,13012
2022-08-21T08:53:18.713Z,13444
2022-08-21T08:54:19.954Z,13948
2022-08-21T08:55:23.211Z,14140
2022-08-21T08:56:20.563Z,8948
2022-08-21T08:57:21.791Z,2288
2022-08-21T08:58:21.748Z,5076
2022-08-21T08:59:22.890Z,7388
2022-08-21T09:00:23.300Z,14176
2022-08-21T09:01:22.902Z,14124
2022-08-21T09:02:23.337Z,13884
2022-08-21T09:03:23.830Z,12612
2022-08-21T09:04:24.043Z,14040
2022-08-21T09:05:24.676Z,14264
2022-08-21T09:06:24.894Z,14356
2022-08-21T09:07:24.528Z,14328
2022-08-21T09:08:30.079Z,14232
2022-08-21T09:09:26.397Z,14216
2022-08-21T09:10:27.062Z,14328
2022-08-21T09:11:27.497Z,14312
2022-08-21T09:12:28.716Z,14396
2022-08-21T09:13:28.376Z,14288
2022-08-21T09:14:32.789Z,14248
2022-08-21T09:15:29.728Z,14196
2022-08-21T09:16:30.775Z,14244
2022-08-21T09:17:32.293Z,14300
2022-08-21T09:18:31.935Z,14060
2022-08-21T09:19:35.731Z,14476
2022-08-21T09:20:32.949Z,14536
2022-08-21T09:21:34.247Z,13916
2022-08-21T09:22:34.763Z,10460
2022-08-21T09:23:34.723Z,14372
2022-08-21T09:24:35.257Z,14292
2022-08-21T09:25:35.505Z,14284
2022-08-21T09:26:35.743Z,14124
2022-08-21T09:28:37.378Z,14252
2022-08-21T09:29:38.605Z,14276
2022-08-21T09:30:38.836Z,14364
2022-08-21T09:31:39.269Z,14392
2022-08-21T09:32:47.739Z,14448
2022-08-21T09:33:40.952Z,14424
2022-08-21T09:34:41.596Z,13372
2022-08-21T09:35:42.811Z,14416
2022-08-21T09:36:43.474Z,14312
2022-08-21T09:37:43.986Z,14352
2022-08-21T09:38:43.937Z,14328
2022-08-21T09:39:54.862Z,14376
2022-08-21T09:40:45.764Z,14352
2022-08-21T09:41:45.767Z,14316
2022-08-21T09:42:46.430Z,14228
2022-08-21T09:43:47.708Z,14280
2022-08-21T09:44:48.644Z,14104
2022-08-21T09:45:49.287Z,14284
2022-08-21T09:46:54.600Z,8912
2022-08-21T09:47:51.555Z,14344
2022-08-21T09:48:53.857Z,14140
2022-08-21T09:49:52.214Z,9912
2022-08-21T09:50:53.725Z,14632
2022-08-21T09:51:54.301Z,14068
2022-08-21T09:52:57.636Z,14048
2022-08-21T09:53:54.890Z,13972
2022-08-21T09:54:56.105Z,13792
2022-08-21T09:55:56.693Z,13688
2022-08-21T09:56:56.414Z,13752
2022-08-21T09:58:01.605Z,13712
2022-08-21T09:58:57.245Z,13732
2022-08-21T09:59:58.327Z,13680
2022-08-21T10:00:58.932Z,13676
2022-08-21T10:02:00.025Z,13708
2022-08-21T10:03:00.444Z,13644
2022-08-21T10:04:00.987Z,12192
2022-08-21T10:05:04.095Z,13520
2022-08-21T10:06:02.318Z,13516
2022-08-21T10:07:05.515Z,13680
2022-08-21T10:08:03.737Z,13328
2022-08-21T10:09:03.982Z,13308
2022-08-21T10:10:05.110Z,13244
2022-08-21T10:11:07.873Z,13144
2022-08-21T10:12:05.299Z,13080
2022-08-21T10:13:06.256Z,13060
2022-08-21T10:14:08.275Z,13088
2022-08-21T10:15:13.443Z,13052
2022-08-21T10:16:08.669Z,12992
2022-08-21T10:17:08.426Z,12968
2022-08-21T10:18:09.662Z,12928
2022-08-21T10:19:09.658Z,12944
2022-08-21T10:20:10.878Z,12812
2022-08-21T10:21:17.187Z,12836
2022-08-21T10:22:11.758Z,12816
2022-08-21T10:23:13.907Z,12860
2022-08-21T10:24:12.422Z,12844
2022-08-21T10:25:12.867Z,12880
2022-08-21T10:26:24.315Z,12916
2022-08-21T10:27:14.551Z,12868
2022-08-21T10:28:19.610Z,12864
2022-08-21T10:29:14.949Z,12840
2022-08-21T10:30:15.310Z,12776
2022-08-21T10:31:16.528Z,12900
2022-08-21T10:32:37.093Z,13024
2022-08-21T10:33:18.323Z,12948
2022-08-21T10:34:19.238Z,12916
2022-08-21T10:35:19.886Z,12896
2022-08-21T10:36:21.115Z,12788
2022-08-21T10:37:22.557Z,12684
2022-08-21T10:39:26.926Z,12548
2022-08-21T10:39:53.267Z,12472
2022-08-21T10:40:53.019Z,12376
2022-08-21T10:41:53.657Z,12472
2022-08-21T10:42:54.274Z,12432
2022-08-21T10:43:54.426Z,12372
2022-08-21T10:44:55.366Z,12444
2022-08-21T10:45:56.021Z,12380
2022-08-21T10:46:57.238Z,12320
2022-08-21T10:48:03.523Z,12296
2022-08-21T10:48:57.480Z,12264
2022-08-21T10:49:57.754Z,12200
2022-08-21T10:50:58.687Z,12236
2022-08-21T10:51:58.326Z,12228
2022-08-21T10:52:59.728Z,12212
2022-08-21T10:54:00.265Z,12132
2022-08-21T10:55:00.490Z,12152
2022-08-21T10:56:01.721Z,12144
2022-08-21T10:57:07.002Z,12108
2022-08-21T10:58:03.033Z,12124
2022-08-21T10:59:03.676Z,11992
2022-08-21T11:00:06.534Z,11884
2022-08-21T11:01:07.332Z,11892
2022-08-21T11:02:06.364Z,11892
2022-08-21T11:03:07.375Z,11920
2022-08-21T11:04:11.049Z,11908
2022-08-21T11:05:08.988Z,11840
2022-08-21T11:06:10.329Z,11780
2022-08-21T11:07:22.935Z,11740
2022-08-21T11:08:12.574Z,11764
2022-08-21T11:09:15.091Z,11772
2022-08-21T11:10:14.519Z,11720
2022-08-21T11:11:22.109Z,11536
2022-08-21T11:12:26.889Z,11524
2022-08-21T11:13:15.178Z,11496
2022-08-21T11:14:15.385Z,11428
2022-08-21T11:15:35.549Z,11360
2022-08-21T11:16:17.377Z,11316
2022-08-21T11:17:21.463Z,11296
2022-08-21T11:18:17.910Z,11284
2022-08-21T11:19:18.807Z,11168
2022-08-21T11:20:18.866Z,11072
2022-08-21T11:21:20.524Z,11084
2022-08-21T11:22:21.036Z,11024
2022-08-21T11:23:22.149Z,10820
2022-08-21T11:24:24.510Z,10896
2022-08-21T11:25:24.016Z,1240
2022-08-21T11:26:24.925Z,1208
2022-08-21T11:27:25.089Z,1520
2022-08-21T11:28:25.981Z,8432
2022-08-21T11:29:25.919Z,10672
2022-08-21T11:30:26.196Z,10512
2022-08-21T11:31:26.109Z,10412
2022-08-21T11:32:27.027Z,10368
2022-08-21T11:33:28.043Z,10392
2022-08-21T11:34:27.697Z,10488
2022-08-21T11:35:28.932Z,10724
2022-08-21T11:36:28.273Z,10120
2022-08-21T11:37:29.482Z,9940
2022-08-21T11:38:31.068Z,9916
2022-08-21T11:39:30.595Z,9972
2022-08-21T11:40:31.015Z,9844
2022-08-21T11:41:31.535Z,9936
2022-08-21T11:42:30.869Z,5364
2022-08-21T11:43:32.170Z,9536
2022-08-21T11:44:32.679Z,4480
2022-08-21T11:45:34.482Z,2120
2022-08-21T11:46:33.986Z,9584
2022-08-21T11:47:34.178Z,1428
2022-08-21T11:48:35.409Z,5352
2022-08-21T11:49:35.326Z,9052
2022-08-21T11:50:46.889Z,5144
2022-08-21T11:51:36.224Z,4560
2022-08-21T11:52:37.158Z,8968
2022-08-21T11:53:37.893Z,8852
2022-08-21T11:54:37.813Z,8864
2022-08-21T11:55:39.048Z,8876
2022-08-21T11:56:39.284Z,8836
2022-08-21T11:57:39.519Z,8768
2022-08-21T11:58:39.428Z,8724
2022-08-21T11:59:46.517Z,8684
2022-08-21T12:00:41.173Z,8648
2022-08-21T12:01:42.144Z,8608
2022-08-21T12:02:42.452Z,8564
2022-08-21T12:03:42.950Z,8528
2022-08-21T12:04:44.178Z,8448
2022-08-21T12:05:44.493Z,8408
2022-08-21T12:06:44.828Z,8388
2022-08-21T12:07:46.050Z,8372
2022-08-21T12:08:45.983Z,8368
2022-08-21T12:09:46.631Z,8460
2022-08-21T12:10:47.872Z,8480
2022-08-21T12:11:49.524Z,8404
2022-08-21T12:12:48.834Z,8324
2022-08-21T12:13:54.623Z,8300
2022-08-21T12:14:53.958Z,8244
2022-08-21T12:15:54.899Z,8168
2022-08-21T12:16:55.514Z,8132
2022-08-21T12:17:56.452Z,8088
2022-08-21T12:18:57.756Z,8016
2022-08-21T12:19:57.990Z,7980
2022-08-21T12:21:01.984Z,7928
2022-08-21T12:21:58.643Z,7916
2022-08-21T12:23:04.161Z,7880
2022-08-21T12:24:00.584Z,7868
2022-08-21T12:25:00.789Z,7852
2022-08-21T12:26:02.023Z,7816
2022-08-21T12:27:02.233Z,7772
2022-08-21T12:28:03.469Z,7760
2022-08-21T12:29:04.405Z,7708
2022-08-21T12:30:04.037Z,7680
2022-08-21T12:31:09.102Z,7612
2022-08-21T12:32:06.061Z,7552
2022-08-21T12:33:07.051Z,7516
2022-08-21T12:34:08.064Z,7468
2022-08-21T12:35:08.003Z,7444
2022-08-21T12:36:09.038Z,7388
2022-08-21T12:37:09.263Z,7368
2022-08-21T12:38:09.621Z,7324
2022-08-21T12:39:10.852Z,7280
2022-08-21T12:40:11.231Z,7236
2022-08-21T12:41:11.566Z,7212
2022-08-21T12:42:13.166Z,7208
2022-08-21T12:43:14.033Z,7164
2022-08-21T12:44:14.050Z,7136
2022-08-21T12:45:14.258Z,7132
2022-08-21T12:46:14.784Z,7128
2022-08-21T12:47:14.992Z,7104
2022-08-21T12:48:15.499Z,7064
2022-08-21T12:49:15.770Z,7080
2022-08-21T12:50:16.097Z,7056
2022-08-21T12:51:17.009Z,7028
2022-08-21T12:52:17.668Z,7036
2022-08-21T12:53:31.684Z,7080
2022-08-21T12:54:20.249Z,7164
2022-08-21T12:55:20.757Z,7276
2022-08-21T12:56:20.376Z,7372
2022-08-21T12:57:22.108Z,7544
2022-08-21T12:58:22.454Z,7592
2022-08-21T12:59:23.087Z,7612
2022-08-21T13:00:27.072Z,7516
2022-08-21T13:01:25.200Z,7452
2022-08-21T13:02:25.943Z,7324
2022-08-21T13:03:26.872Z,7236
2022-08-21T13:04:27.069Z,7224
2022-08-21T13:05:28.003Z,7240
2022-08-21T13:06:34.902Z,7072
2022-08-21T13:07:30.510Z,7076
2022-08-21T13:08:30.731Z,6920
2022-08-21T13:09:30.935Z,6896
2022-08-21T13:10:32.168Z,6964
2022-08-21T13:11:47.224Z,7068
2022-08-21T13:12:38.427Z,7168
2022-08-21T13:13:44.705Z,7252
2022-08-21T13:14:52.633Z,7564
2022-08-21T13:15:47.701Z,7464
2022-08-21T13:16:47.012Z,7184
2022-08-21T13:17:44.755Z,7060
2022-08-21T13:18:47.531Z,6868
2022-08-21T13:19:44.473Z,6740
2022-08-21T13:20:44.827Z,6724
2022-08-21T13:21:46.161Z,6612
2022-08-21T13:22:46.812Z,6476
2022-08-21T13:23:54.658Z,6476
2022-08-21T13:24:58.714Z,6392
2022-08-21T13:25:59.233Z,6400
2022-08-21T13:26:59.862Z,6368
2022-08-21T13:28:00.793Z,6296
2022-08-21T13:29:02.299Z,6156
2022-08-21T13:30:05.674Z,6080
2022-08-21T13:31:03.606Z,6004
2022-08-21T13:32:04.117Z,5820
2022-08-21T13:33:06.922Z,5740
2022-08-21T13:34:05.205Z,5640
2022-08-21T13:35:05.383Z,5532
2022-08-21T13:36:06.342Z,5384
2022-08-21T13:37:06.980Z,5244
2022-08-21T13:38:07.588Z,5164
2022-08-21T13:39:08.095Z,5108
2022-08-21T13:40:08.653Z,5052
2022-08-21T13:41:08.599Z,5004
2022-08-21T13:42:11.480Z,4952
2022-08-21T13:43:09.687Z,4892
2022-08-21T13:44:11.001Z,4836
2022-08-21T13:45:11.194Z,4788
2022-08-21T13:46:11.404Z,4748
2022-08-21T13:47:12.072Z,4700
2022-08-21T13:48:17.210Z,4648
2022-08-21T13:49:13.567Z,4608
2022-08-21T13:50:14.207Z,4568
2022-08-21T13:51:15.447Z,4536
2022-08-21T13:52:15.404Z,4516
2022-08-21T13:53:15.343Z,4500
2022-08-21T13:54:16.559Z,4536
2022-08-21T13:55:17.807Z,4588
2022-08-21T13:56:18.016Z,4740
2022-08-21T13:57:18.230Z,4864
2022-08-21T13:58:18.750Z,4760